createdAt,value
2022-12-09T00:01:11.306Z,118.99
2022-12-09T00:03:39.027Z,118.99
2022-12-09T00:06:17.525Z,118.99
2022-12-09T00:08:44.581Z,118.99
2022-12-09T00:11:11.575Z,118.99
2022-12-09T00:13:38.467Z,118.99
2022-12-09T00:16:10.950Z,118.99
2022-12-09T00:18:38.335Z,118.99
2022-12-09T00:21:20.469Z,118.99
2022-12-09T00:23:48.199Z,118.99
2022-12-09T00:26:15.939Z,118.99
2022-12-09T00:28:43.634Z,118.99
2022-12-09T00:31:13.764Z,118.99
2022-12-09T00:33:41.346Z,118.99
2022-12-09T00:36:17.061Z,118.99
2022-12-09T00:38:44.178Z,118.99
2022-12-09T00:41:12.181Z,118.99
2022-12-09T00:43:39.173Z,118.99
2022-12-09T00:46:06.139Z,118.99
2022-12-09T00:48:37.300Z,118.99
2022-12-09T00:51:06.348Z,118.99
2022-12-09T00:53:33.474Z,118.99
2022-12-09T00:56:00.787Z,118.99
2022-12-09T00:58:27.680Z,118.99
2022-12-09T01:00:54.762Z,118.99
2022-12-09T01:03:21.992Z,118.99
2022-12-09T01:05:49.699Z,118.99
2022-12-09T01:08:16.993Z,118.99
2022-12-09T01:10:44.789Z,118.99
2022-12-09T01:13:14.975Z,118.99
2022-12-09T01:15:43.008Z,118.99
2022-12-09T01:18:11.592Z,118.99
2022-12-09T01:20:38.880Z,118.99
2022-12-09T01:23:05.797Z,118.99
2022-12-09T01:25:34.147Z,118.99
2022-12-09T01:28:01.047Z,118.99
2022-12-09T01:30:27.788Z,118.99
2022-12-09T01:32:54.617Z,118.99
2022-12-09T01:35:21.749Z,118.99
2022-12-09T01:37:48.561Z,118.99
2022-12-09T01:40:17.638Z,118.99
2022-12-09T01:42:45.130Z,118.99
2022-12-09T01:45:21.578Z,118.99
2022-12-09T01:47:57.082Z,118.99
2022-12-09T01:50:26.693Z,118.99
2022-12-09T01:52:53.680Z,118.99
2022-12-09T01:55:20.873Z,118.99
2022-12-09T01:57:47.895Z,118.99
2022-12-09T02:00:15.286Z,118.99
2022-12-09T02:02:45.552Z,118.99
2022-12-09T02:05:13.037Z,118.99
2022-12-09T02:07:40.016Z,118.99
2022-12-09T02:10:12.773Z,118.99
2022-12-09T02:12:59.927Z,118.99
2022-12-09T02:15:58.160Z,118.99
2022-12-09T02:21:55.247Z,118.99
2022-12-09T02:24:25.790Z,118.99
2022-12-09T02:27:12.731Z,118.99
2022-12-09T02:30:04.503Z,118.99
2022-12-09T02:32:44.624Z,118.99
2022-12-09T02:35:23.837Z,118.99
2022-12-09T02:38:07.908Z,118.99
2022-12-09T02:40:43.784Z,118.99
2022-12-09T02:43:12.214Z,118.99
2022-12-09T02:45:41.456Z,118.99
2022-12-09T02:48:11.143Z,118.99
2022-12-09T02:50:41.171Z,118.99
2022-12-09T02:53:11.043Z,118.99
2022-12-09T02:55:40.644Z,118.99
2022-12-09T02:58:07.966Z,118.99
2022-12-09T03:00:34.970Z,118.99
2022-12-09T03:03:04.264Z,118.99
2022-12-09T03:05:47.893Z,118.99
2022-12-09T03:08:17.589Z,118.99
2022-12-09T03:11:05.148Z,118.99
2022-12-09T03:14:02.942Z,118.99
2022-12-09T03:16:33.417Z,118.99
2022-12-09T03:19:21.495Z,118.99
2022-12-09T03:21:50.766Z,118.99
2022-12-09T03:24:24.875Z,118.99
2022-12-09T03:26:53.227Z,118.99
2022-12-09T03:29:24.404Z,118.99
2022-12-09T03:31:54.806Z,118.99
2022-12-09T03:34:25.701Z,118.99
2022-12-09T03:36:53.810Z,118.99
2022-12-09T03:39:27.331Z,118.99
2022-12-09T03:41:57.509Z,118.99
2022-12-09T03:44:37.639Z,118.99
2022-12-09T03:47:06.971Z,118.99
2022-12-09T03:49:34.408Z,118.99
2022-12-09T03:52:27.672Z,118.99
2022-12-09T03:54:59.200Z,118.99
2022-12-09T03:57:27.446Z,118.99
2022-12-09T03:59:59.364Z,118.99
2022-12-09T04:02:26.804Z,118.99
2022-12-09T04:04:54.301Z,118.99
2022-12-09T04:07:21.486Z,118.99
2022-12-09T04:09:48.329Z,118.99
2022-12-09T04:12:15.175Z,118.99
2022-12-09T04:14:41.973Z,118.99
2022-12-09T04:17:09.849Z,118.99
2022-12-09T04:19:36.969Z,118.99
2022-12-09T04:22:04.929Z,118.99
2022-12-09T04:24:31.726Z,118.99
2022-12-09T04:26:58.688Z,118.99
2022-12-09T04:29:25.415Z,118.99
2022-12-09T04:31:52.296Z,118.99
2022-12-09T04:34:19.268Z,118.99
2022-12-09T04:36:46.196Z,118.99
2022-12-09T04:39:13.404Z,118.99
2022-12-09T04:41:40.856Z,118.99
2022-12-09T04:44:07.844Z,118.99
2022-12-09T04:46:35.039Z,118.99
2022-12-09T04:49:01.907Z,118.99
2022-12-09T04:51:32.510Z,118.99
2022-12-09T04:54:04.465Z,118.99
2022-12-09T04:56:31.235Z,118.99
2022-12-09T04:58:58.692Z,118.99
2022-12-09T05:01:30.585Z,118.99
2022-12-09T05:03:58.593Z,118.99
2022-12-09T05:06:25.839Z,118.99
2022-12-09T05:08:52.868Z,118.99
2022-12-09T05:11:20.777Z,118.99
2022-12-09T05:13:48.035Z,118.99
2022-12-09T05:16:17.726Z,118.99
2022-12-09T05:18:47.324Z,118.99
2022-12-09T05:21:17.339Z,118.99
2022-12-09T05:23:45.044Z,118.99
2022-12-09T05:26:15.245Z,118.99
2022-12-09T05:28:42.329Z,118.99
2022-12-09T05:31:17.157Z,118.99
2022-12-09T05:33:45.121Z,118.99
2022-12-09T05:36:17.742Z,118.99
2022-12-09T05:38:45.151Z,118.99
2022-12-09T05:41:12.756Z,118.99
2022-12-09T05:43:40.310Z,118.99
2022-12-09T05:46:07.944Z,118.99
2022-12-09T05:48:36.428Z,118.99
2022-12-09T05:51:10.478Z,118.99
2022-12-09T05:53:37.892Z,118.99
2022-12-09T05:56:05.104Z,118.99
2022-12-09T05:58:32.070Z,118.99
2022-12-09T06:01:06.568Z,118.99
2022-12-09T06:03:35.176Z,118.99
2022-12-09T06:06:10.600Z,118.99
2022-12-09T06:08:38.576Z,118.99
2022-12-09T06:11:09.813Z,118.99
2022-12-09T06:13:37.175Z,118.99
2022-12-09T06:16:06.178Z,118.99
2022-12-09T06:18:33.769Z,118.99
2022-12-09T06:21:05.463Z,118.99
2022-12-09T06:23:32.233Z,118.99
2022-12-09T06:25:58.991Z,118.99
2022-12-09T06:28:25.677Z,118.99
2022-12-09T06:30:52.906Z,118.99
2022-12-09T06:33:52.513Z,118.99
2022-12-09T06:36:07.306Z,118.99
2022-12-09T06:38:34.687Z,118.99
2022-12-09T06:41:06.448Z,118.99
2022-12-09T06:43:33.470Z,118.99
2022-12-09T06:46:00.587Z,118.99
2022-12-09T06:48:27.938Z,118.99
2022-12-09T06:50:55.016Z,118.99
2022-12-09T06:53:22.283Z,118.99
2022-12-09T06:55:49.475Z,118.99
2022-12-09T06:58:16.752Z,118.99
2022-12-09T07:00:43.777Z,118.99
2022-12-09T07:03:12.917Z,118.99
2022-12-09T07:05:40.303Z,118.99
2022-12-09T07:08:07.747Z,118.99
2022-12-09T07:10:36.277Z,118.99
2022-12-09T07:13:03.683Z,118.99
2022-12-09T07:15:30.449Z,118.99
2022-12-09T07:17:57.275Z,118.99
2022-12-09T07:20:24.567Z,118.99
2022-12-09T07:22:51.442Z,118.99
2022-12-09T07:25:18.232Z,118.99
2022-12-09T07:27:45.296Z,118.99
2022-12-09T07:30:12.312Z,118.99
2022-12-09T07:32:40.149Z,118.99
2022-12-09T07:35:08.284Z,118.99
2022-12-09T07:37:35.538Z,118.99
2022-12-09T07:40:02.540Z,118.99
2022-12-09T07:42:29.589Z,118.99
2022-12-09T07:44:59.575Z,118.99
2022-12-09T07:47:26.521Z,118.99
2022-12-09T07:49:53.415Z,118.99
2022-12-09T07:52:20.475Z,118.99
2022-12-09T07:54:47.196Z,118.99
2022-12-09T07:57:14.302Z,118.99
2022-12-09T07:59:41.091Z,118.99
2022-12-09T08:02:09.640Z,118.99
2022-12-09T08:04:36.628Z,118.99
2022-12-09T08:07:03.806Z,118.99
2022-12-09T08:09:31.229Z,118.99
2022-12-09T08:11:58.573Z,118.99
2022-12-09T08:14:25.821Z,118.99
2022-12-09T08:16:53.081Z,118.99
2022-12-09T08:19:20.230Z,118.99
2022-12-09T08:21:52.888Z,118.99
2022-12-09T08:24:21.967Z,118.99
2022-12-09T08:26:50.583Z,118.99
2022-12-09T08:29:17.564Z,118.99
2022-12-09T08:31:45.205Z,118.99
2022-12-09T08:34:13.007Z,118.99
2022-12-09T08:36:40.797Z,118.99
2022-12-09T08:39:08.544Z,118.99
2022-12-09T08:41:38.193Z,118.99
2022-12-09T08:44:15.567Z,118.99
2022-12-09T08:46:45.596Z,118.99
2022-12-09T08:49:13.746Z,118.99
2022-12-09T08:51:41.385Z,118.99
2022-12-09T08:54:08.511Z,118.99
2022-12-09T08:56:35.956Z,118.99
2022-12-09T08:59:03.887Z,118.99
2022-12-09T09:01:38.094Z,118.99
2022-12-09T09:04:14.437Z,118.99
2022-12-09T09:06:43.623Z,118.99
2022-12-09T09:09:12.676Z,118.99
2022-12-09T09:11:40.753Z,118.99
2022-12-09T09:14:10.170Z,118.99
2022-12-09T09:16:40.856Z,118.99
2022-12-09T09:19:08.890Z,118.99
2022-12-09T09:21:36.212Z,118.99
2022-12-09T09:24:09.435Z,118.99
2022-12-09T09:26:40.124Z,118.99
2022-12-09T09:29:07.306Z,118.99
2022-12-09T09:31:34.996Z,118.99
2022-12-09T09:34:02.151Z,118.99
2022-12-09T09:36:29.068Z,118.99
2022-12-09T09:38:57.454Z,118.99
2022-12-09T09:41:36.500Z,118.99
2022-12-09T09:44:04.658Z,118.99
2022-12-09T09:46:39.863Z,118.99
2022-12-09T09:49:19.735Z,118.99
2022-12-09T09:51:47.695Z,118.99
2022-12-09T09:54:16.049Z,118.99
2022-12-09T09:56:54.430Z,118.99
2022-12-09T09:59:24.714Z,118.99
2022-12-09T10:02:31.398Z,118.99
2022-12-09T10:05:18.753Z,118.99
2022-12-09T10:07:54.621Z,118.99
2022-12-09T10:10:41.310Z,118.99
2022-12-09T10:13:20.831Z,118.99
2022-12-09T10:15:54.934Z,118.99
2022-12-09T10:18:39.064Z,118.99
2022-12-09T10:21:20.113Z,118.99
2022-12-09T10:23:49.077Z,118.99
2022-12-09T10:26:29.199Z,118.99
2022-12-09T10:29:20.039Z,118.99
2022-12-09T10:31:47.401Z,118.99
2022-12-09T10:34:14.364Z,118.99
2022-12-09T10:36:45.316Z,118.99
2022-12-09T10:39:22.107Z,118.99
2022-12-09T10:42:11.338Z,118.99
2022-12-09T10:44:38.347Z,118.99
2022-12-09T10:47:17.699Z,118.99
2022-12-09T10:49:51.903Z,118.99
2022-12-09T10:52:29.837Z,118.99
2022-12-09T10:54:58.104Z,118.99
2022-12-09T10:57:29.033Z,118.99
2022-12-09T11:00:34.418Z,118.99
2022-12-09T11:03:01.690Z,118.99
2022-12-09T11:05:31.875Z,118.99
2022-12-09T11:07:59.595Z,118.99
2022-12-09T11:10:29.620Z,118.71
2022-12-09T11:13:07.165Z,118.99
2022-12-09T11:15:46.081Z,118.99
2022-12-09T11:18:21.313Z,118.99
2022-12-09T11:21:44.601Z,118.99
2022-12-09T11:24:21.527Z,118.99
2022-12-09T11:26:49.013Z,118.99
2022-12-09T11:29:19.381Z,118.99
2022-12-09T11:31:47.495Z,118.99
2022-12-09T11:34:23.470Z,118.99
2022-12-09T11:36:53.736Z,118.99
2022-12-09T11:39:23.246Z,118.99
2022-12-09T11:42:19.621Z,118.99
2022-12-09T11:45:16.249Z,118.73
2022-12-09T11:50:36.587Z,118.57
2022-12-09T11:53:21.083Z,118.63
2022-12-09T11:55:54.638Z,118.11
2022-12-09T11:58:30.315Z,118.01
2022-12-09T12:01:03.791Z,118.21
2022-12-09T12:03:37.767Z,118.15
2022-12-09T12:06:12.318Z,117.80
2022-12-09T12:08:43.539Z,117.37
2022-12-09T12:11:15.600Z,117.29
2022-12-09T12:13:42.514Z,116.99
2022-12-09T12:16:37.715Z,117.16
2022-12-09T12:19:20.556Z,116.20
2022-12-09T12:22:02.474Z,115.86
2022-12-09T12:24:50.894Z,115.31
2022-12-09T12:27:26.563Z,115.28
2022-12-09T12:30:18.654Z,115.19
2022-12-09T12:36:17.678Z,115.32
2022-12-09T12:38:56.296Z,114.76
2022-12-09T12:41:47.102Z,114.51
2022-12-09T12:44:45.613Z,114.47
2022-12-09T12:47:28.440Z,114.70
2022-12-09T12:50:32.277Z,115.57
2022-12-09T12:53:27.140Z,114.32
2022-12-09T12:56:09.496Z,114.45
2022-12-09T12:59:06.816Z,114.67
2022-12-09T13:01:35.027Z,115.00
2022-12-09T13:04:07.765Z,114.70
2022-12-09T13:06:59.596Z,114.41
2022-12-09T13:09:29.118Z,114.22
2022-12-09T13:12:08.004Z,114.35
2022-12-09T13:14:55.359Z,114.27
2022-12-09T13:17:28.961Z,114.28
2022-12-09T13:20:02.005Z,114.10
2022-12-09T13:22:48.826Z,114.14
2022-12-09T13:26:02.894Z,115.89
2022-12-09T13:28:43.020Z,114.69
2022-12-09T13:31:10.832Z,114.36
2022-12-09T13:33:54.644Z,114.28
2022-12-09T13:36:27.682Z,114.29
2022-12-09T13:38:56.038Z,113.83
2022-12-09T13:41:51.926Z,113.49
2022-12-09T13:44:19.353Z,112.68
2022-12-09T13:46:46.088Z,113.45
2022-12-09T13:49:21.875Z,113.36
2022-12-09T13:51:54.027Z,113.80
2022-12-09T13:54:24.260Z,114.26
2022-12-09T13:57:08.749Z,114.08
2022-12-09T13:59:40.584Z,114.16
2022-12-09T14:02:34.846Z,114.70
2022-12-09T14:05:18.942Z,115.29
2022-12-09T14:07:51.039Z,115.41
2022-12-09T14:10:38.286Z,114.75
2022-12-09T14:13:37.418Z,114.58
2022-12-09T14:16:16.150Z,114.65
2022-12-09T14:18:44.404Z,114.09
2022-12-09T14:21:27.085Z,114.06
2022-12-09T14:24:09.110Z,113.87
2022-12-09T14:26:36.950Z,113.63
2022-12-09T14:29:04.197Z,113.40
2022-12-09T14:31:45.215Z,114.00
2022-12-09T14:34:32.710Z,114.18
2022-12-09T14:37:27.276Z,114.70
2022-12-09T14:40:03.008Z,114.55
2022-12-09T14:42:47.192Z,114.52
2022-12-09T14:45:25.954Z,114.55
2022-12-09T14:47:52.970Z,114.61
2022-12-09T14:50:22.817Z,114.35
2022-12-09T14:52:52.387Z,113.71
2022-12-09T14:55:20.110Z,113.55
2022-12-09T14:57:48.598Z,113.57
2022-12-09T15:00:27.915Z,113.91
2022-12-09T15:03:30.263Z,113.74
2022-12-09T15:05:57.292Z,113.84
2022-12-09T15:08:53.608Z,113.98
2022-12-09T15:11:23.829Z,113.56
2022-12-09T15:13:53.072Z,113.32
2022-12-09T15:16:23.964Z,113.12
2022-12-09T15:18:52.407Z,113.03
2022-12-09T15:21:30.142Z,113.21
2022-12-09T15:23:58.958Z,113.30
2022-12-09T15:26:32.345Z,113.35
2022-12-09T15:29:00.982Z,113.71
2022-12-09T15:31:30.218Z,113.81
2022-12-09T15:34:00.908Z,114.12
2022-12-09T15:36:32.652Z,113.95
2022-12-09T15:39:22.048Z,113.82
2022-12-09T15:42:10.291Z,113.61
2022-12-09T15:44:44.406Z,113.65
2022-12-09T15:47:22.868Z,114.08
2022-12-09T15:49:52.252Z,114.35
2022-12-09T15:52:24.840Z,114.65
2022-12-09T15:54:52.263Z,115.17
2022-12-09T15:57:21.482Z,115.11
2022-12-09T15:59:56.039Z,114.83
2022-12-09T16:02:27.364Z,115.03
2022-12-09T16:05:00.643Z,114.78
2022-12-09T16:07:27.681Z,114.94
2022-12-09T16:10:11.931Z,114.62
2022-12-09T16:12:42.382Z,114.37
2022-12-09T16:15:12.541Z,114.15
2022-12-09T16:18:02.067Z,113.96
2022-12-09T16:20:31.784Z,114.08
2022-12-09T16:23:00.214Z,114.80
2022-12-09T16:25:29.689Z,114.80
2022-12-09T16:28:01.029Z,115.19
2022-12-09T16:30:30.936Z,115.82
2022-12-09T16:32:59.792Z,115.64
2022-12-09T16:35:40.911Z,115.94
2022-12-09T16:38:19.121Z,116.17
2022-12-09T16:40:45.865Z,115.86
2022-12-09T16:43:15.729Z,115.90
2022-12-09T16:45:44.514Z,115.17
2022-12-09T16:48:13.057Z,115.01
2022-12-09T16:50:46.212Z,115.23
2022-12-09T16:53:15.853Z,115.51
2022-12-09T16:56:01.702Z,115.71
2022-12-09T16:58:30.332Z,115.66
2022-12-09T17:00:58.740Z,115.62
2022-12-09T17:03:25.427Z,115.30
2022-12-09T17:05:52.227Z,115.03
2022-12-09T17:08:19.066Z,114.85
2022-12-09T17:10:45.945Z,114.97
2022-12-09T17:13:12.814Z,114.81
2022-12-09T17:15:42.550Z,114.83
2022-12-09T17:18:10.523Z,115.15
2022-12-09T17:20:38.210Z,115.28
2022-12-09T17:23:05.150Z,115.01
2022-12-09T17:25:33.321Z,114.80
2022-12-09T17:28:05.483Z,114.54
2022-12-09T17:30:36.670Z,114.69
2022-12-09T17:33:03.620Z,114.90
2022-12-09T17:35:33.839Z,114.71
2022-12-09T17:38:02.267Z,114.56
2022-12-09T17:40:28.917Z,115.19
2022-12-09T17:42:55.558Z,115.35
2022-12-09T17:45:22.270Z,115.41
2022-12-09T17:47:50.018Z,115.23
2022-12-09T17:50:16.820Z,115.20
2022-12-09T17:52:43.557Z,115.25
2022-12-09T17:55:11.114Z,115.16
2022-12-09T17:57:37.852Z,115.03
2022-12-09T18:00:05.860Z,114.71
2022-12-09T18:02:32.710Z,114.85
2022-12-09T18:04:59.469Z,115.36
2022-12-09T18:07:26.122Z,115.85
2022-12-09T18:09:54.731Z,115.91
2022-12-09T18:12:22.272Z,115.57
2022-12-09T18:14:49.007Z,114.86
2022-12-09T18:17:16.006Z,114.32
2022-12-09T18:19:42.743Z,113.91
2022-12-09T18:22:09.504Z,114.08
2022-12-09T18:24:36.394Z,113.95
2022-12-09T18:27:03.670Z,114.00
2022-12-09T18:29:30.870Z,114.63
2022-12-09T18:31:57.918Z,114.28
2022-12-09T18:34:26.224Z,114.32
2022-12-09T18:36:53.208Z,114.28
2022-12-09T18:39:20.235Z,114.79
2022-12-09T18:41:47.283Z,114.57
2022-12-09T18:44:15.552Z,114.12
2022-12-09T18:46:48.625Z,113.87
2022-12-09T18:49:21.207Z,114.90
2022-12-09T18:51:49.691Z,114.64
2022-12-09T18:54:20.074Z,114.61
2022-12-09T18:56:46.761Z,114.22
2022-12-09T18:59:13.544Z,113.84
2022-12-09T19:01:42.840Z,113.52
2022-12-09T19:04:19.481Z,112.80
2022-12-09T19:06:48.760Z,112.52
2022-12-09T19:09:22.009Z,112.58
2022-12-09T19:11:50.307Z,113.07
2022-12-09T19:14:19.665Z,113.16
2022-12-09T19:16:46.616Z,114.22
2022-12-09T19:19:15.880Z,114.16
2022-12-09T19:21:42.922Z,114.04
2022-12-09T19:24:18.879Z,114.02
2022-12-09T19:26:45.769Z,113.73
2022-12-09T19:29:14.459Z,113.75
2022-12-09T19:31:46.806Z,113.45
2022-12-09T19:34:19.518Z,113.42
2022-12-09T19:36:47.894Z,113.71
2022-12-09T19:39:15.890Z,114.16
2022-12-09T19:41:43.302Z,113.84
2022-12-09T19:44:15.325Z,114.41
2022-12-09T19:46:45.482Z,113.96
2022-12-09T19:49:13.943Z,113.74
2022-12-09T19:51:41.320Z,113.77
2022-12-09T19:54:08.105Z,113.11
2022-12-09T19:56:34.767Z,112.26
2022-12-09T19:59:01.585Z,113.16
2022-12-09T20:01:34.185Z,113.71
2022-12-09T20:04:46.404Z,113.58
2022-12-09T20:06:56.448Z,113.47
2022-12-09T20:09:24.434Z,112.91
2022-12-09T20:11:52.877Z,112.27
2022-12-09T20:14:20.326Z,112.74
2022-12-09T20:16:47.125Z,113.50
2022-12-09T20:19:14.003Z,113.60
2022-12-09T20:21:40.806Z,113.14
2022-12-09T20:24:09.172Z,112.91
2022-12-09T20:26:37.372Z,112.73
2022-12-09T20:29:07.386Z,112.62
2022-12-09T20:31:36.668Z,112.46
2022-12-09T20:34:05.999Z,112.39
2022-12-09T20:36:34.220Z,112.26
2022-12-09T20:39:12.796Z,112.48
2022-12-09T20:41:41.836Z,112.66
2022-12-09T20:44:10.491Z,113.25
2022-12-09T20:46:39.423Z,113.39
2022-12-09T20:49:06.568Z,113.35
2022-12-09T20:51:39.249Z,113.13
2022-12-09T20:54:07.010Z,113.29
2022-12-09T20:56:35.511Z,112.48
2022-12-09T20:59:03.261Z,112.19
2022-12-09T21:01:32.641Z,112.37
2022-12-09T21:04:01.050Z,112.66
2022-12-09T21:06:30.219Z,112.77
2022-12-09T21:09:10.413Z,112.84
2022-12-09T21:11:37.786Z,113.03
2022-12-09T21:14:06.810Z,113.19
2022-12-09T21:16:37.903Z,112.84
2022-12-09T21:19:07.389Z,112.87
2022-12-09T21:21:35.994Z,113.48
2022-12-09T21:24:03.795Z,113.53
2022-12-09T21:26:31.017Z,113.40
2022-12-09T21:29:00.012Z,112.68
2022-12-09T21:31:30.659Z,112.29
2022-12-09T21:33:59.444Z,112.19
2022-12-09T21:36:28.461Z,112.06
2022-12-09T21:38:56.408Z,111.33
2022-12-09T21:41:25.631Z,111.80
2022-12-09T21:43:54.938Z,112.52
2022-12-09T21:46:24.536Z,112.06
2022-12-09T21:48:52.821Z,112.15
2022-12-09T21:51:21.923Z,112.07
2022-12-09T21:53:49.179Z,111.71
2022-12-09T21:56:18.703Z,111.50
2022-12-09T21:58:47.938Z,111.90
2022-12-09T22:01:29.551Z,112.19
2022-12-09T22:03:58.277Z,112.55
2022-12-09T22:06:25.687Z,113.09
2022-12-09T22:08:52.661Z,113.21
2022-12-09T22:11:26.054Z,113.03
2022-12-09T22:13:56.935Z,112.29
2022-12-09T22:16:26.234Z,112.35
2022-12-09T22:18:55.686Z,111.07
2022-12-09T22:21:25.717Z,111.03
2022-12-09T22:23:54.813Z,111.35
2022-12-09T22:26:22.051Z,110.87
2022-12-09T22:28:49.507Z,111.27
2022-12-09T22:31:28.373Z,110.78
2022-12-09T22:33:58.642Z,110.78
2022-12-09T22:36:25.458Z,111.20
2022-12-09T22:38:53.616Z,111.51
2022-12-09T22:41:23.230Z,111.42
2022-12-09T22:43:51.127Z,111.22
2022-12-09T22:46:23.491Z,111.34
2022-12-09T22:48:50.981Z,111.29
2022-12-09T22:51:19.074Z,111.42
2022-12-09T22:53:47.719Z,111.86
2022-12-09T22:56:15.107Z,111.44
2022-12-09T22:58:43.709Z,111.74
2022-12-09T23:01:18.022Z,111.75
2022-12-09T23:03:45.309Z,111.69
2022-12-09T23:06:12.648Z,111.69
2022-12-09T23:08:41.705Z,111.62
2022-12-09T23:11:12.932Z,111.74
2022-12-09T23:13:41.491Z,112.32
2022-12-09T23:16:12.508Z,111.95
2022-12-09T23:18:40.045Z,111.94
2022-12-09T23:21:10.134Z,112.22
2022-12-09T23:23:37.707Z,111.89
2022-12-09T23:26:06.818Z,112.24
2022-12-09T23:28:38.354Z,112.12
2022-12-09T23:31:07.098Z,111.74
2022-12-09T23:33:34.772Z,111.62
2022-12-09T23:36:09.785Z,111.51
2022-12-09T23:38:36.813Z,111.42
2022-12-09T23:41:04.301Z,111.73
2022-12-09T23:43:39.437Z,112.10
2022-12-09T23:46:15.777Z,111.45
2022-12-09T23:48:45.065Z,110.91
2022-12-09T23:51:20.915Z,111.54
2022-12-09T23:53:55.370Z,110.30
2022-12-09T23:56:24.077Z,110.46
2022-12-09T23:59:03.178Z,110.70
